Time;durP1;ratioP1;P1;durP2;ratioP2;P2;SDS_P1;SDS_P2;PMS_P1;PMS_P2;Temp;Humidity;BMP_temperature;BMP_pressure;BME280_temperature;BME280_humidity;BME280_pressure;Samples;Min_cycle;Max_cycle;Signal;HPM_P1;HPM_P2
2023/09/29 00:00:44;;;;;;;4.90;2.50;;;19.10;99.90;;;;;;5043017;28;20451;-80
2023/09/29 00:03:12;;;;;;;3.83;2.47;;;19.10;99.90;;;;;;5052732;28;20206;-80
2023/09/29 00:05:38;;;;;;;5.93;2.77;;;19.20;93.70;;;;;;5053213;28;20201;-80
2023/09/29 00:08:06;;;;;;;5.33;3.13;;;19.30;16.30;;;;;;5051682;28;20503;-80
2023/09/29 00:10:32;;;;;;;4.17;2.30;;;19.30;1.00;;;;;;5051211;28;20178;-80
2023/09/29 00:12:58;;;;;;;5.20;2.63;;;19.40;1.00;;;;;;5052725;28;20555;-80
2023/09/29 00:15:24;;;;;;;6.47;2.30;;;19.40;1.00;;;;;;5035069;28;20610;-80
2023/09/29 00:17:49;;;;;;;2.50;2.00;;;19.40;1.00;;;;;;5046772;28;20490;-81
2023/09/29 00:20:23;;;;;;;5.50;2.60;;;19.40;1.00;;;;;;5049121;28;20245;-80
2023/09/29 00:22:52;;;;;;;5.23;2.30;;;19.40;1.00;;;;;;5033628;28;20225;-80
2023/09/29 00:25:18;;;;;;;3.63;2.20;;;19.50;1.00;;;;;;5052944;28;20444;-80
2023/09/29 00:27:44;;;;;;;3.20;2.30;;;19.50;1.00;;;;;;5051118;28;20464;-80
2023/09/29 00:30:11;;;;;;;2.97;2.23;;;19.60;99.90;;;;;;5051181;28;20437;-80
2023/09/29 00:32:42;;;;;;;3.50;2.30;;;19.60;99.90;;;;;;5051275;28;20448;-81
2023/09/29 00:35:09;;;;;;;4.60;2.47;;;19.60;99.90;;;;;;5050568;28;20467;-79
2023/09/29 00:37:35;;;;;;;4.27;2.37;;;19.60;99.90;;;;;;5051986;28;20472;-80
2023/09/29 00:40:01;;;;;;;4.50;2.30;;;19.70;99.90;;;;;;5052177;28;20480;-80
2023/09/29 00:42:26;;;;;;;3.27;2.07;;;19.70;5.30;;;;;;5051761;28;20240;-80
2023/09/29 00:44:52;;;;;;;6.13;2.60;;;19.70;1.00;;;;;;5053948;28;20198;-81
2023/09/29 00:47:17;;;;;;;5.43;2.90;;;19.70;1.00;;;;;;5049265;28;20272;-80
2023/09/29 00:49:46;;;;;;;7.83;2.43;;;19.70;1.00;;;;;;5014002;28;20560;-80
2023/09/29 00:52:13;;;;;;;7.20;2.37;;;19.70;1.00;;;;;;5032254;28;20671;-80
2023/09/29 00:54:38;;;;;;;3.70;2.30;;;19.70;1.00;;;;;;5048972;28;20490;-81
2023/09/29 00:57:05;;;;;;;2.80;2.30;;;19.70;1.00;;;;;;5043841;28;20436;-80
2023/09/29 00:59:32;;;;;;;3.30;2.10;;;19.70;1.00;;;;;;5052138;28;20280;-80
2023/09/29 01:01:59;;;;;;;3.27;2.17;;;19.70;1.00;;;;;;5050668;28;20530;-80
2023/09/29 01:04:25;;;;;;;3.37;2.27;;;19.70;1.00;;;;;;5048426;28;20440;-80
2023/09/29 01:06:51;;;;;;;3.10;1.90;;;19.70;1.00;;;;;;5052193;28;20839;-81
2023/09/29 01:09:16;;;;;;;9.23;2.27;;;19.70;1.00;;;;;;5050706;28;20194;-80
2023/09/29 01:11:43;;;;;;;2.90;2.20;;;19.70;1.00;;;;;;5051206;28;20639;-79
2023/09/29 01:14:11;;;;;;;3.10;2.20;;;19.70;89.80;;;;;;5052481;28;20198;-80
2023/09/29 01:16:43;;;;;;;4.87;2.40;;;19.70;99.90;;;;;;5033426;28;20991;-80
2023/09/29 01:19:11;;;;;;;4.13;2.40;;;19.70;99.90;;;;;;5042052;28;20435;-80
2023/09/29 01:21:38;;;;;;;3.37;2.60;;;19.70;99.90;;;;;;5051729;28;20910;-81
2023/09/29 01:24:06;;;;;;;2.97;2.20;;;19.70;99.90;;;;;;5054296;28;20467;-81
2023/09/29 01:26:31;;;;;;;2.27;1.70;;;19.70;99.90;;;;;;5033505;28;20470;-80
2023/09/29 01:28:58;;;;;;;3.23;2.20;;;19.70;99.90;;;;;;5052552;28;20444;-81
2023/09/29 01:31:23;;;;;;;4.53;2.20;;;19.70;99.90;;;;;;5033614;28;20197;-80
2023/09/29 01:33:49;;;;;;;2.70;2.20;;;19.70;99.90;;;;;;5050106;28;20820;-80
2023/09/29 01:36:14;;;;;;;6.37;2.40;;;19.70;99.90;;;;;;5048788;28;20221;-81
2023/09/29 01:38:40;;;;;;;4.57;2.37;;;19.70;99.90;;;;;;5049895;28;20229;-80
2023/09/29 01:41:05;;;;;;;2.93;2.10;;;19.70;99.90;;;;;;5041007;28;20186;-80
2023/09/29 01:43:32;;;;;;;3.70;2.30;;;19.70;99.90;;;;;;5049568;28;20232;-80
2023/09/29 01:45:59;;;;;;;3.23;2.30;;;19.70;1.00;;;;;;5032080;28;20182;-80
2023/09/29 01:48:25;;;;;;;5.90;2.57;;;19.70;1.00;;;;;;5030452;28;20514;-80
2023/09/29 01:50:51;;;;;;;5.43;2.37;;;19.70;1.00;;;;;;5031616;28;20475;-80
2023/09/29 01:53:16;;;;;;;3.20;2.40;;;19.70;1.00;;;;;;5050598;28;20205;-80
2023/09/29 01:55:42;;;;;;;3.43;1.90;;;19.70;1.00;;;;;;5049763;28;20191;-79
2023/09/29 01:58:09;;;;;;;2.93;2.13;;;19.70;1.00;;;;;;5048053;28;20278;-82
2023/09/29 02:00:35;;;;;;;5.03;2.57;;;19.70;1.00;;;;;;5031033;28;20335;-80
2023/09/29 02:03:01;;;;;;;3.93;1.87;;;19.70;1.00;;;;;;5031887;28;21040;-80
2023/09/29 02:05:27;;;;;;;6.27;2.20;;;19.70;1.00;;;;;;5048391;28;20312;-78
2023/09/29 02:07:52;;;;;;;2.70;2.00;;;19.70;1.00;;;;;;5050139;28;20559;-80
2023/09/29 02:10:20;;;;;;;3.27;2.00;;;19.70;1.00;;;;;;5041205;28;20660;-80
2023/09/29 02:12:49;;;;;;;3.70;2.20;;;19.70;1.00;;;;;;5044007;28;20202;-80
2023/09/29 02:15:15;;;;;;;5.77;2.40;;;19.80;1.00;;;;;;5049884;28;20433;-80
2023/09/29 02:17:41;;;;;;;4.53;2.40;;;19.80;1.00;;;;;;5047774;28;21326;-82
2023/09/29 02:20:15;;;;;;;5.30;3.43;;;19.80;1.00;;;;;;5056288;28;20468;-80
2023/09/29 02:22:41;;;;;;;4.73;2.53;;;19.80;1.00;;;;;;5039753;28;20460;-81
2023/09/29 02:25:10;;;;;;;4.30;2.40;;;19.80;1.00;;;;;;5037481;28;20445;-82
2023/09/29 02:27:36;;;;;;;7.30;2.37;;;19.80;1.00;;;;;;5054107;28;21151;-81
2023/09/29 02:30:02;;;;;;;3.20;1.70;;;19.80;1.00;;;;;;5028799;28;20469;-81
2023/09/29 02:32:27;;;;;;;3.23;1.80;;;19.80;1.00;;;;;;5050159;28;20658;-81
2023/09/29 02:34:55;;;;;;;5.80;2.40;;;19.80;1.00;;;;;;5045275;28;20457;-81
2023/09/29 02:37:21;;;;;;;2.83;2.37;;;19.80;1.00;;;;;;5054567;28;20190;-81
2023/09/29 02:39:47;;;;;;;3.67;2.47;;;19.80;1.00;;;;;;5051476;28;20444;-81
2023/09/29 02:42:12;;;;;;;3.30;2.10;;;19.80;1.00;;;;;;5053527;28;20834;-82
2023/09/29 02:44:39;;;;;;;2.77;1.90;;;19.70;11.50;;;;;;5043386;28;20191;-82
2023/09/29 02:47:05;;;;;;;3.77;2.20;;;19.70;99.90;;;;;;5027730;28;20202;-80
2023/09/29 02:49:33;;;;;;;4.70;2.60;;;19.70;99.90;;;;;;5044037;28;20933;-81
2023/09/29 02:51:59;;;;;;;6.60;2.70;;;19.60;99.90;;;;;;5053736;28;20640;-81
2023/09/29 02:54:25;;;;;;;4.33;2.23;;;19.60;99.90;;;;;;5056743;28;20446;-83
2023/09/29 02:56:50;;;;;;;3.20;2.30;;;19.60;99.90;;;;;;5056122;28;20444;-81
2023/09/29 02:59:16;;;;;;;3.33;2.27;;;19.60;99.90;;;;;;5057545;28;20198;-79
2023/09/29 03:01:44;;;;;;;4.23;2.10;;;19.60;99.90;;;;;;5057879;28;20194;-81
2023/09/29 03:04:10;;;;;;;5.10;2.50;;;19.60;1.00;;;;;;5048655;28;20267;-82
2023/09/29 03:06:35;;;;;;;8.00;2.57;;;19.50;1.00;;;;;;5038815;28;20544;-82
2023/09/29 03:09:01;;;;;;;3.90;1.83;;;19.50;1.00;;;;;;5055839;28;20531;-81
2023/09/29 03:11:26;;;;;;;2.83;1.93;;;19.50;1.00;;;;;;5057904;28;20182;-82
2023/09/29 03:13:55;;;;;;;5.00;2.27;;;19.50;1.00;;;;;;5030829;28;20194;-82
2023/09/29 03:16:24;;;;;;;3.60;2.10;;;19.50;1.00;;;;;;5054678;28;20186;-82
2023/09/29 03:18:50;;;;;;;3.20;2.30;;;19.50;1.00;;;;;;5035363;28;20449;-82
2023/09/29 03:21:16;;;;;;;4.93;2.00;;;19.50;1.00;;;;;;5041888;28;20525;-82
2023/09/29 03:23:42;;;;;;;2.70;2.00;;;19.50;1.00;;;;;;5034612;28;20469;-83
2023/09/29 03:26:09;;;;;;;2.73;2.17;;;19.40;1.00;;;;;;5054828;28;20464;-84
2023/09/29 03:28:35;;;;;;;4.30;2.47;;;19.50;1.00;;;;;;5038788;28;20475;-81
2023/09/29 03:31:05;;;;;;;4.20;2.33;;;19.50;1.00;;;;;;5037375;28;20428;-82
2023/09/29 03:33:32;;;;;;;4.90;2.97;;;19.50;1.00;;;;;;5051445;28;20457;-82
2023/09/29 03:35:58;;;;;;;5.23;2.37;;;19.50;1.00;;;;;;5029304;28;20443;-82
2023/09/29 03:38:25;;;;;;;3.93;2.20;;;19.50;1.00;;;;;;5041708;28;20436;-82
2023/09/29 03:40:52;;;;;;;4.53;2.43;;;19.40;1.00;;;;;;5034087;28;20193;-81
2023/09/29 03:43:22;;;;;;;4.70;2.67;;;19.40;1.00;;;;;;5027279;28;20545;-81
2023/09/29 03:45:49;;;;;;;5.10;3.03;;;19.40;1.00;;;;;;5055217;28;21037;-80
2023/09/29 03:48:16;;;;;;;5.23;2.87;;;19.40;1.00;;;;;;5047827;28;21028;-80
2023/09/29 03:50:42;;;;;;;6.10;2.67;;;19.40;1.00;;;;;;5053606;28;20429;-82
2023/09/29 03:53:07;;;;;;;4.90;2.60;;;19.40;1.00;;;;;;5049547;28;20487;-81
2023/09/29 03:55:33;;;;;;;3.90;2.50;;;19.40;1.00;;;;;;5040548;28;20441;-80
2023/09/29 03:57:59;;;;;;;3.97;2.70;;;19.40;1.00;;;;;;5031449;28;20453;-82
2023/09/29 04:00:26;;;;;;;4.77;3.20;;;19.40;8.20;;;;;;5052066;28;20437;-81
2023/09/29 04:02:52;;;;;;;8.20;3.10;;;19.40;21.30;;;;;;5054183;28;20457;-81
2023/09/29 04:05:18;;;;;;;6.00;3.03;;;19.40;99.90;;;;;;5056025;28;20974;-82
2023/09/29 04:07:44;;;;;;;5.70;3.77;;;19.30;99.90;;;;;;5024284;28;20461;-82
2023/09/29 04:10:11;;;;;;;4.00;2.73;;;19.30;99.90;;;;;;5054113;28;20448;-81
2023/09/29 04:12:40;;;;;;;9.50;3.73;;;19.30;99.90;;;;;;5026693;28;20762;-82
2023/09/29 04:15:07;;;;;;;3.80;3.10;;;19.20;99.90;;;;;;5038673;28;20432;-82
2023/09/29 04:17:33;;;;;;;7.47;3.17;;;19.20;99.90;;;;;;5052642;28;20495;-82
2023/09/29 04:19:59;;;;;;;5.00;3.23;;;19.10;99.90;;;;;;5037429;28;20432;-82
2023/09/29 04:22:24;;;;;;;7.03;3.80;;;19.10;99.90;;;;;;5051743;28;20485;-82
2023/09/29 04:24:51;;;;;;;7.03;3.00;;;19.10;99.90;;;;;;5053211;28;20612;-79
2023/09/29 04:27:16;;;;;;;3.77;3.00;;;19.10;99.90;;;;;;5050090;28;20229;-82
2023/09/29 04:29:42;;;;;;;6.57;2.97;;;19.10;99.90;;;;;;5046487;28;20444;-81
2023/09/29 04:32:07;;;;;;;3.17;2.70;;;19.10;99.90;;;;;;5045219;28;20540;-82
2023/09/29 04:34:33;;;;;;;6.63;3.23;;;19.10;99.90;;;;;;5054229;28;20190;-81
2023/09/29 04:36:59;;;;;;;7.17;2.80;;;19.10;99.90;;;;;;5055207;28;20186;-82
2023/09/29 04:39:24;;;;;;;4.90;3.03;;;19.20;99.90;;;;;;5052316;28;20251;-82
2023/09/29 04:41:51;;;;;;;4.90;2.77;;;19.10;99.90;;;;;;5040938;28;20265;-79
2023/09/29 04:44:17;;;;;;;5.40;3.40;;;19.10;99.90;;;;;;5047263;28;20190;-81
2023/09/29 04:46:43;;;;;;;4.73;3.53;;;19.10;99.90;;;;;;5052775;28;20493;-81
2023/09/29 04:49:08;;;;;;;5.33;3.40;;;19.10;99.90;;;;;;5053207;28;20202;-82
2023/09/29 04:51:36;;;;;;;5.40;3.30;;;19.10;99.90;;;;;;5052572;28;20858;-81
2023/09/29 04:54:02;;;;;;;7.00;3.20;;;19.00;99.90;;;;;;5047713;28;20200;-81
2023/09/29 04:56:28;;;;;;;4.90;2.90;;;19.10;99.90;;;;;;5044095;28;21019;-81
2023/09/29 04:58:53;;;;;;;4.93;3.27;;;19.10;99.90;;;;;;5049974;28;20483;-81
2023/09/29 05:01:19;;;;;;;5.20;3.60;;;19.10;99.90;;;;;;5052365;28;20281;-80
2023/09/29 05:03:47;;;;;;;6.60;3.20;;;19.00;99.90;;;;;;5046632;28;20206;-82
2023/09/29 05:06:13;;;;;;;4.30;3.60;;;19.10;99.90;;;;;;5042661;28;20531;-80
2023/09/29 05:08:39;;;;;;;10.40;3.70;;;19.10;99.90;;;;;;5043991;28;20479;-80
2023/09/29 05:11:05;;;;;;;4.10;3.70;;;19.00;99.90;;;;;;5051049;28;20503;-80
2023/09/29 05:13:32;;;;;;;4.63;3.53;;;19.00;99.90;;;;;;5030941;28;20480;-80
2023/09/29 05:15:58;;;;;;;4.00;3.30;;;19.00;99.90;;;;;;5042839;28;20175;-82
2023/09/29 05:18:24;;;;;;;6.10;3.27;;;19.00;99.90;;;;;;5043720;28;20845;-80
2023/09/29 05:20:50;;;;;;;6.00;3.20;;;19.00;99.90;;;;;;5050568;28;20501;-80
2023/09/29 05:23:15;;;;;;;5.40;3.50;;;19.00;99.90;;;;;;5047578;28;20202;-81
2023/09/29 05:25:50;;;;;;;9.13;3.57;;;19.00;99.90;;;;;;5051673;28;20257;-80
2023/09/29 05:28:15;;;;;;;4.10;3.43;;;19.00;99.90;;;;;;5051852;28;20209;-81
2023/09/29 05:30:52;;;;;;;5.47;3.50;;;19.00;99.90;;;;;;5048168;28;20433;-81
2023/09/29 05:33:17;;;;;;;7.17;3.13;;;19.10;99.90;;;;;;5031717;28;20216;-81
2023/09/29 05:35:42;;;;;;;6.67;3.23;;;19.10;99.90;;;;;;5047463;28;20829;-81
2023/09/29 05:38:08;;;;;;;6.00;3.40;;;19.10;99.90;;;;;;5045601;28;20190;-79
2023/09/29 05:40:33;;;;;;;6.80;3.13;;;19.10;99.90;;;;;;5042015;28;20182;-80
2023/09/29 05:42:59;;;;;;;5.60;4.07;;;19.20;99.90;;;;;;5033379;28;20206;-82
2023/09/29 05:45:24;;;;;;;4.73;3.10;;;19.20;99.90;;;;;;5053191;28;20194;-79
2023/09/29 05:47:51;;;;;;;4.50;3.20;;;19.20;99.90;;;;;;5047398;28;20271;-82
2023/09/29 05:50:17;;;;;;;5.23;3.00;;;19.20;99.90;;;;;;5032900;28;20196;-80
2023/09/29 05:52:42;;;;;;;5.80;3.23;;;19.20;99.90;;;;;;5050743;28;20451;-81
2023/09/29 05:55:08;;;;;;;6.33;3.17;;;19.20;99.90;;;;;;5047136;28;20178;-82
2023/09/29 05:57:34;;;;;;;5.50;3.73;;;19.20;99.90;;;;;;5051717;28;20201;-81
2023/09/29 05:59:59;;;;;;;10.07;3.40;;;19.30;99.90;;;;;;5049153;28;20428;-81
2023/09/29 06:02:25;;;;;;;3.90;2.60;;;19.30;99.90;;;;;;5051245;28;20205;-78
2023/09/29 06:04:50;;;;;;;5.90;3.40;;;19.40;99.90;;;;;;5051061;28;20174;-80
2023/09/29 06:07:16;;;;;;;6.67;3.20;;;19.50;99.90;;;;;;5050369;28;20273;-79
2023/09/29 06:09:41;;;;;;;7.37;3.10;;;19.60;99.90;;;;;;5051809;28;20203;-79
2023/09/29 06:12:07;;;;;;;5.80;2.80;;;19.70;99.90;;;;;;5029976;28;20186;-79
2023/09/29 06:14:32;;;;;;;10.20;2.60;;;19.80;99.90;;;;;;5052680;28;20188;-79
2023/09/29 06:16:59;;;;;;;10.53;3.13;;;20.00;26.10;;;;;;5051251;28;20186;-80
2023/09/29 06:19:24;;;;;;;5.70;4.20;;;20.10;1.00;;;;;;5055470;28;20726;-80
2023/09/29 06:21:50;;;;;;;8.33;3.50;;;20.20;1.00;;;;;;5056064;28;20473;-81
2023/09/29 06:24:15;;;;;;;7.87;3.20;;;20.20;1.00;;;;;;5055757;28;20182;-80
2023/09/29 06:26:41;;;;;;;6.70;3.40;;;20.10;1.00;;;;;;5038527;28;20264;-80
2023/09/29 06:29:07;;;;;;;10.00;3.43;;;20.10;1.00;;;;;;5049142;28;20252;-80
2023/09/29 06:31:32;;;;;;;5.50;3.10;;;20.10;1.00;;;;;;5053568;28;20178;-80
2023/09/29 06:33:58;;;;;;;5.40;3.10;;;20.20;1.00;;;;;;5050993;28;20214;-82
2023/09/29 06:36:23;;;;;;;6.83;3.10;;;20.30;1.00;;;;;;5056477;28;20224;-80
2023/09/29 06:38:49;;;;;;;6.40;3.90;;;20.50;99.90;;;;;;5055191;28;20189;-80
2023/09/29 06:41:14;;;;;;;4.97;2.80;;;20.70;55.20;;;;;;5054316;28;20214;-79
2023/09/29 06:43:40;;;;;;;3.37;2.50;;;20.90;99.90;;;;;;5054603;28;21713;-80
2023/09/29 06:46:06;;;;;;;5.07;2.47;;;21.20;99.90;;;;;;5055940;28;20197;-81
2023/09/29 06:48:33;;;;;;;5.97;2.90;;;21.50;99.90;;;;;;5049568;28;20917;-80
2023/09/29 06:50:59;;;;;;;6.03;3.30;;;21.70;1.00;;;;;;5051726;28;20759;-78
2023/09/29 06:53:26;;;;;;;5.33;3.20;;;21.90;1.00;;;;;;5051917;28;20944;-81
2023/09/29 06:55:52;;;;;;;3.90;2.80;;;22.10;99.50;;;;;;5040105;28;20517;-80
2023/09/29 06:58:17;;;;;;;6.03;3.47;;;22.50;3.90;;;;;;5054648;28;20504;-80
2023/09/29 07:00:44;;;;;;;6.83;3.70;;;22.30;99.90;;;;;;5036357;28;20272;-79
2023/09/29 07:03:12;;;;;;;4.00;3.07;;;22.30;99.90;;;;;;5052453;28;20205;-80
2023/09/29 07:05:38;;;;;;;5.43;3.07;;;22.30;1.00;;;;;;5050141;28;20436;-80
2023/09/29 07:08:04;;;;;;;3.50;3.10;;;22.40;99.90;;;;;;5052406;28;20478;-81
2023/09/29 07:10:29;;;;;;;9.40;2.83;;;22.50;99.90;;;;;;5052215;28;20186;-80
2023/09/29 07:12:55;;;;;;;3.50;2.83;;;22.80;99.90;;;;;;5053110;28;20462;-80
2023/09/29 07:15:20;;;;;;;4.97;2.80;;;23.20;1.00;;;;;;5050942;28;20187;-80
2023/09/29 07:17:46;;;;;;;6.53;2.60;;;23.10;1.00;;;;;;5053154;28;20960;-80
2023/09/29 07:20:12;;;;;;;3.80;2.70;;;23.00;1.00;;;;;;5055439;28;20185;-80
2023/09/29 07:22:38;;;;;;;4.83;3.13;;;22.90;1.00;;;;;;5050320;28;20693;-81
2023/09/29 07:25:04;;;;;;;6.87;3.00;;;22.90;90.20;;;;;;5052681;28;20545;-81
2023/09/29 07:27:31;;;;;;;6.60;3.30;;;22.80;99.90;;;;;;5055953;28;20213;-81
2023/09/29 07:29:57;;;;;;;6.47;2.93;;;22.90;99.90;;;;;;5056945;28;20451;-81
2023/09/29 07:32:26;;;;;;;4.63;3.20;;;23.00;95.40;;;;;;5055808;28;20467;-81
2023/09/29 07:34:51;;;;;;;5.40;2.93;;;23.10;1.00;;;;;;5042703;28;20174;-81
2023/09/29 07:37:17;;;;;;;5.93;2.73;;;23.00;1.00;;;;;;5037978;28;20455;-81
2023/09/29 07:39:42;;;;;;;6.50;2.67;;;23.40;1.00;;;;;;5022756;28;20190;-80
2023/09/29 07:42:09;;;;;;;9.23;2.27;;;23.90;1.00;;;;;;5051826;28;20210;-81
2023/09/29 07:44:34;;;;;;;4.83;2.70;;;24.20;99.90;;;;;;5052676;28;20202;-81
2023/09/29 07:47:00;;;;;;;9.60;2.63;;;24.30;99.90;;;;;;5052737;28;20468;-79
2023/09/29 07:49:26;;;;;;;4.60;2.80;;;24.30;99.90;;;;;;5054322;28;20713;-80
2023/09/29 07:51:52;;;;;;;5.30;2.70;;;24.20;99.90;;;;;;5037352;28;20182;-81
2023/09/29 07:54:19;;;;;;;4.93;2.80;;;24.20;99.90;;;;;;5053899;28;20828;-81
2023/09/29 07:56:49;;;;;;;5.27;3.33;;;24.10;99.90;;;;;;5049918;28;20186;-81
2023/09/29 07:59:16;;;;;;;3.73;2.77;;;24.20;99.90;;;;;;5055197;28;20582;-80
2023/09/29 08:01:43;;;;;;;3.93;2.80;;;24.20;99.90;;;;;;5053895;28;20425;-80
2023/09/29 08:04:09;;;;;;;3.80;2.53;;;24.30;99.90;;;;;;5053847;28;20452;-81
2023/09/29 08:06:35;;;;;;;4.30;2.60;;;24.40;48.00;;;;;;5053933;28;20444;-81
2023/09/29 08:09:01;;;;;;;5.67;2.70;;;24.50;1.00;;;;;;5036261;28;20428;-81
2023/09/29 08:11:26;;;;;;;7.17;2.63;;;24.80;1.00;;;;;;5052900;28;20185;-81
2023/09/29 08:13:53;;;;;;;7.50;3.00;;;26.00;1.00;;;;;;5050906;28;20498;-81
2023/09/29 08:16:20;;;;;;;4.13;2.60;;;27.80;1.00;;;;;;5052754;28;20184;-81
2023/09/29 08:18:45;;;;;;;4.80;2.40;;;28.70;99.90;;;;;;5034941;28;20434;-81
2023/09/29 08:21:11;;;;;;;5.90;2.40;;;30.60;99.90;;;;;;5052877;28;20437;-82
2023/09/29 08:23:37;;;;;;;3.70;2.10;;;30.80;99.90;;;;;;5053330;28;20703;-82
2023/09/29 08:26:04;;;;;;;7.30;2.40;;;32.00;99.90;;;;;;5050457;28;20208;-79
2023/09/29 08:28:29;;;;;;;3.43;2.50;;;33.90;99.90;;;;;;5047997;28;20521;-81
2023/09/29 08:30:55;;;;;;;5.60;2.77;;;35.00;99.90;;;;;;5050949;28;20436;-82
2023/09/29 08:33:20;;;;;;;5.90;2.80;;;34.80;99.90;;;;;;5051615;28;20240;-82
2023/09/29 08:35:46;;;;;;;4.17;1.60;;;34.70;99.90;;;;;;5036015;28;20663;-81
2023/09/29 08:38:11;;;;;;;3.83;2.13;;;35.30;99.90;;;;;;5053860;28;20211;-82
2023/09/29 08:40:40;;;;;;;9.33;2.70;;;35.70;99.90;;;;;;5050743;28;20191;-82
2023/09/29 08:43:06;;;;;;;27.70;3.87;;;36.20;99.90;;;;;;5035872;28;20198;-82
2023/09/29 08:45:32;;;;;;;6.47;3.00;;;36.20;99.90;;;;;;5047519;28;20466;-81
2023/09/29 08:48:00;;;;;;;5.10;2.23;;;34.00;99.90;;;;;;5051761;28;20475;-81
2023/09/29 08:50:26;;;;;;;4.30;2.40;;;31.80;99.90;;;;;;5051626;28;20466;-80
2023/09/29 08:52:53;;;;;;;3.73;2.10;;;30.50;99.90;;;;;;5054375;28;20473;-81
2023/09/29 08:55:21;;;;;;;5.83;2.70;;;29.30;99.90;;;;;;5053714;28;20487;-80
2023/09/29 08:57:47;;;;;;;3.70;2.10;;;28.40;99.90;;;;;;5051901;28;20836;-81
2023/09/29 09:00:13;;;;;;;4.93;2.73;;;27.50;99.90;;;;;;5056003;28;20432;-82
2023/09/29 09:02:44;;;;;;;3.67;2.50;;;27.30;99.90;;;;;;5049562;28;20489;-81
2023/09/29 09:05:14;;;;;;;5.20;2.70;;;27.00;99.90;;;;;;5050739;28;20508;-81
2023/09/29 09:07:41;;;;;;;4.73;2.77;;;26.90;99.90;;;;;;5052632;28;20525;-81
2023/09/29 09:10:09;;;;;;;4.83;2.60;;;27.90;99.90;;;;;;5052730;28;20865;-81
2023/09/29 09:12:35;;;;;;;4.30;2.37;;;28.70;99.90;;;;;;5053467;28;20465;-80
2023/09/29 09:15:03;;;;;;;6.33;2.83;;;29.00;99.90;;;;;;5052863;28;20497;-81
2023/09/29 09:17:33;;;;;;;6.30;2.73;;;28.80;99.90;;;;;;5051554;28;20446;-80
2023/09/29 09:19:58;;;;;;;6.23;3.10;;;28.40;99.90;;;;;;5048046;28;20457;-81
2023/09/29 09:22:27;;;;;;;5.97;2.40;;;28.20;99.90;;;;;;5051799;28;20465;-81
2023/09/29 09:25:00;;;;;;;5.53;2.60;;;27.90;99.90;;;;;;5033341;28;20191;-81
2023/09/29 09:27:26;;;;;;;7.53;2.43;;;27.90;99.90;;;;;;5051426;28;20468;-81
2023/09/29 09:29:51;;;;;;;5.20;2.90;;;27.90;99.90;;;;;;5034310;28;20551;-79
2023/09/29 09:32:27;;;;;;;4.40;2.33;;;28.40;99.90;;;;;;5051451;28;20205;-81
2023/09/29 09:34:53;;;;;;;5.50;2.90;;;29.10;99.90;;;;;;5048783;28;20191;-80
2023/09/29 09:37:28;;;;;;;3.13;2.30;;;29.40;99.90;;;;;;5051663;28;20443;-80
2023/09/29 09:40:05;;;;;;;8.20;2.50;;;29.60;99.90;;;;;;5051411;28;20192;-81
2023/09/29 09:42:30;;;;;;;8.00;2.80;;;30.30;99.90;;;;;;5050675;28;20487;-80
2023/09/29 09:44:59;;;;;;;4.97;2.83;;;31.10;99.90;;;;;;5050419;28;20437;-81
2023/09/29 09:47:25;;;;;;;4.40;2.40;;;32.20;99.90;;;;;;5034582;28;20209;-81
2023/09/29 09:49:55;;;;;;;5.60;2.97;;;32.80;99.90;;;;;;5050054;28;20430;-82
2023/09/29 09:52:30;;;;;;;3.87;2.53;;;32.90;99.90;;;;;;5050714;28;21018;-82
2023/09/29 09:54:58;;;;;;;7.73;2.93;;;33.20;99.90;;;;;;5052884;28;20434;-81
2023/09/29 09:57:30;;;;;;;5.13;2.77;;;33.40;99.90;;;;;;5051982;28;20455;-80
2023/09/29 10:00:00;;;;;;;13.13;3.60;;;33.10;99.90;;;;;;5052813;28;21110;-81
2023/09/29 10:02:27;;;;;;;7.00;3.33;;;32.50;99.90;;;;;;5052233;28;20960;-81
2023/09/29 10:04:54;;;;;;;7.97;3.83;;;32.40;99.90;;;;;;5053018;28;20990;-79
2023/09/29 10:07:21;;;;;;;5.60;3.67;;;31.80;99.90;;;;;;5050048;28;20510;-81
2023/09/29 10:09:49;;;;;;;6.80;3.57;;;31.10;99.90;;;;;;5033511;28;20438;-81
2023/09/29 10:12:28;;;;;;;7.13;3.57;;;30.50;99.90;;;;;;5052209;28;20535;-81
2023/09/29 10:14:56;;;;;;;9.37;4.10;;;29.90;99.90;;;;;;5051520;28;20472;-80
2023/09/29 10:17:22;;;;;;;9.33;4.10;;;29.30;99.90;;;;;;5053782;28;20959;-82
2023/09/29 10:19:51;;;;;;;9.40;4.30;;;29.10;99.90;;;;;;5034434;28;20473;-82
2023/09/29 10:22:28;;;;;;;9.70;4.27;;;30.30;99.90;;;;;;5050503;28;20467;-82
2023/09/29 10:24:56;;;;;;;10.20;4.80;;;31.60;99.90;;;;;;5045474;28;20541;-80
2023/09/29 10:27:31;;;;;;;8.27;4.60;;;31.90;99.90;;;;;;5041772;28;20465;-81
2023/09/29 10:30:18;;;;;;;11.40;4.87;;;32.20;99.90;;;;;;5033234;28;20443;-81
2023/09/29 10:32:48;;;;;;;10.20;4.60;;;31.70;99.90;;;;;;5047791;28;20541;-80
2023/09/29 10:35:21;;;;;;;9.60;4.70;;;30.70;99.90;;;;;;5049434;28;20446;-82
2023/09/29 10:37:54;;;;;;;10.33;4.90;;;30.00;99.90;;;;;;5048735;28;20519;-81
2023/09/29 10:40:33;;;;;;;8.50;3.63;;;31.00;99.90;;;;;;5049951;28;20439;-80
2023/09/29 10:43:03;;;;;;;8.17;4.20;;;31.40;99.90;;;;;;5050342;28;20630;-81
2023/09/29 10:45:40;;;;;;;7.00;4.00;;;31.60;99.90;;;;;;5046813;28;20437;-81
2023/09/29 10:48:10;;;;;;;10.40;4.80;;;31.60;99.90;;;;;;5048420;28;20526;-82
2023/09/29 10:50:39;;;;;;;10.07;4.40;;;31.70;99.90;;;;;;5049196;28;20501;-81
2023/09/29 10:53:07;;;;;;;12.10;5.43;;;31.10;99.90;;;;;;5048712;28;20455;-80
2023/09/29 10:55:35;;;;;;;7.77;4.50;;;31.00;99.90;;;;;;5029505;28;20433;-81
2023/09/29 10:58:00;;;;;;;9.20;4.90;;;32.10;99.90;;;;;;5049543;28;20492;-81
2023/09/29 11:00:26;;;;;;;10.07;4.70;;;31.80;99.90;;;;;;5048808;28;20456;-80
2023/09/29 11:02:52;;;;;;;8.23;4.43;;;31.40;99.90;;;;;;5044818;28;20207;-82
2023/09/29 11:05:19;;;;;;;9.70;5.37;;;31.60;99.90;;;;;;5047453;28;20198;-81
2023/09/29 11:07:50;;;;;;;10.83;4.97;;;32.20;99.90;;;;;;5049082;28;20474;-82
2023/09/29 11:10:20;;;;;;;8.43;5.27;;;33.50;99.90;;;;;;5054200;28;20451;-81
2023/09/29 11:12:48;;;;;;;8.50;4.70;;;34.20;99.90;;;;;;5051692;28;21030;-82
2023/09/29 11:15:15;;;;;;;8.33;4.63;;;34.60;99.90;;;;;;5052247;28;20834;-81
2023/09/29 11:17:45;;;;;;;7.60;4.60;;;35.30;99.90;;;;;;5053665;28;20462;-81
2023/09/29 11:20:45;;;;;;;10.73;3.73;;;35.60;99.90;;;;;;5049999;28;20523;-81
2023/09/29 11:23:14;;;;;;;8.17;4.67;;;35.70;99.90;;;;;;5048433;28;20486;-81
2023/09/29 11:25:54;;;;;;;7.70;4.10;;;35.80;99.90;;;;;;5049412;28;20519;-81
2023/09/29 11:28:20;;;;;;;9.63;4.40;;;36.00;99.90;;;;;;5029717;28;20490;-81
2023/09/29 11:30:46;;;;;;;7.50;4.57;;;34.70;99.90;;;;;;5051680;28;20523;-81
2023/09/29 11:33:13;;;;;;;7.83;4.60;;;34.50;99.90;;;;;;5048201;28;20524;-80
2023/09/29 11:35:44;;;;;;;9.53;4.40;;;34.80;99.90;;;;;;5035039;28;20437;-82
2023/09/29 11:38:19;;;;;;;9.47;4.03;;;34.70;99.90;;;;;;5025032;28;20471;-81
2023/09/29 11:40:52;;;;;;;10.93;4.63;;;34.40;99.90;;;;;;5039310;28;20430;-80
2023/09/29 11:43:21;;;;;;;8.23;4.37;;;33.70;99.90;;;;;;5035472;28;20463;-80
2023/09/29 11:45:46;;;;;;;10.10;3.87;;;33.00;99.90;;;;;;5039966;28;21337;-78
2023/09/29 11:48:12;;;;;;;6.90;4.20;;;32.20;99.90;;;;;;5039593;28;20495;-79
2023/09/29 11:50:38;;;;;;;9.43;4.90;;;31.30;99.90;;;;;;5038696;28;20216;-80
2023/09/29 11:53:06;;;;;;;8.10;4.00;;;30.40;99.90;;;;;;5039477;28;20201;-79
2023/09/29 11:55:35;;;;;;;11.50;4.77;;;29.70;99.90;;;;;;5028872;28;20456;-79
2023/09/29 11:58:01;;;;;;;8.30;3.37;;;29.20;99.90;;;;;;5038547;28;20542;-79
2023/09/29 12:00:26;;;;;;;11.40;4.40;;;29.00;99.90;;;;;;5040317;28;20453;-80
2023/09/29 12:02:53;;;;;;;9.43;4.00;;;28.90;99.90;;;;;;5036632;28;20499;-81
2023/09/29 12:05:19;;;;;;;8.10;4.20;;;29.00;99.90;;;;;;5035894;28;20184;-80
2023/09/29 12:07:44;;;;;;;16.07;4.00;;;29.00;99.90;;;;;;5033442;28;20479;-81
2023/09/29 12:10:10;;;;;;;10.53;4.30;;;28.80;99.90;;;;;;5036568;28;20672;-81
2023/09/29 12:12:35;;;;;;;8.03;3.93;;;28.40;99.90;;;;;;5041753;28;20572;-80
2023/09/29 12:15:01;;;;;;;8.93;3.63;;;28.00;99.90;;;;;;5038229;28;20611;-81
2023/09/29 12:17:26;;;;;;;9.30;3.40;;;27.80;99.90;;;;;;5024807;28;20201;-82
2023/09/29 12:19:52;;;;;;;8.30;4.00;;;27.70;99.90;;;;;;5040772;28;20574;-82
2023/09/29 12:22:18;;;;;;;11.40;4.33;;;27.50;99.90;;;;;;5038535;28;20218;-83
2023/09/29 12:24:44;;;;;;;7.30;2.93;;;27.10;99.90;;;;;;5038010;28;20186;-84
2023/09/29 12:27:10;;;;;;;6.53;3.83;;;26.90;99.90;;;;;;5038095;28;20479;-80
2023/09/29 12:29:36;;;;;;;9.60;3.73;;;26.50;99.90;;;;;;5028670;28;20182;-80
2023/09/29 12:32:02;;;;;;;9.70;3.60;;;26.20;99.90;;;;;;5045693;28;20265;-79
2023/09/29 12:34:34;;;;;;;9.60;3.70;;;25.90;99.90;;;;;;5049384;28;20430;-80
2023/09/29 12:37:00;;;;;;;6.10;2.90;;;25.60;99.90;;;;;;5050477;28;20441;-80
2023/09/29 12:39:26;;;;;;;4.13;2.23;;;25.30;1.00;;;;;;5042175;28;20527;-81
2023/09/29 12:41:51;;;;;;;9.00;3.47;;;25.10;1.00;;;;;;5049176;28;20236;-81
2023/09/29 12:44:17;;;;;;;7.97;3.30;;;24.90;1.00;;;;;;5045689;28;20216;-79
2023/09/29 12:46:43;;;;;;;5.67;3.10;;;24.60;1.00;;;;;;5043982;28;20178;-80
2023/09/29 12:49:09;;;;;;;7.13;3.23;;;24.70;1.00;;;;;;5047962;28;20444;-80